Afton, Minnesota
Current Conditions -  °F | °C
As of 6:31 AM on Monday 24 Nov 2014 (Local Time) from K21D Reporting Station
Light Snow Light Snow  
Wind Chill: 16°   Ceiling: 1100
Heat Index: 28°   Visibility: 2mi
Dew Point: 27°   Wind: 17mph
Humidity: 93%   Direction: 310°NW
Pressure: 29.32"   Gusts: 22mph
Location:  44.9°N, 92.78°W
Report Text: K21D 241231Z AUTO 31015G19KT 2SM -SN OVC011 M02/M03 A2932 RMK AO2
Loading
Personal Weather Stations






























Interactive Weather Map New forecast layout! Learn more

10-Day Weather Forecast

Advertisements
Track Severe Weather on mobile